Wymondham, United Kingdom
Current Conditions -  °F | °C
As of 6:50 PM on Saturday 25 Oct 2014 (Local Time) from EGSH Reporting Station
Scattered Clouds Scattered Clouds  
Wind Chill: 12°   Ceiling: Unl
Heat Index: 12°   Visibility: 6mi
Dew Point:   Wind: 7mph
Humidity: 82%   Direction: 190°S
Pressure: 30.06"   Gusts: NA
Location:  52.57°N, 1.11°E
Report Text: EGSH 251750Z 19006KT 150V230 9999 SCT036 12/09 Q1018 NOSIG
Loading
Personal Weather Stations






























Interactive Weather Map
Tropical Storm Tracking
New forecast layout! Learn more

10-Day Weather Forecast

Advertisements
Track Severe Weather on mobile